Time;durP1;ratioP1;P1;durP2;ratioP2;P2;SDS_P1;SDS_P2;PMS_P1;PMS_P2;Temp;Humidity;BMP_temperature;BMP_pressure;BME280_temperature;BME280_humidity;BME280_pressure;Samples;Min_cycle;Max_cycle;Signal;HPM_P1;HPM_P2
2022/04/29 00:02:07;;;;;;;;;;;8.60;99.90;;;;;;5068054;28;20340;-48
2022/04/29 00:04:34;;;;;;;;;;;8.40;99.90;;;;;;5070665;28;19925;-49
2022/04/29 00:07:01;;;;;;;;;;;8.30;99.90;;;;;;5071699;28;19977;-50
2022/04/29 00:09:28;;;;;;;;;;;8.30;99.90;;;;;;5071242;28;19929;-49
2022/04/29 00:11:54;;;;;;;;;;;8.30;99.90;;;;;;5066891;28;19986;-49
2022/04/29 00:14:23;;;;;;;;;;;8.20;99.90;;;;;;5060393;28;19925;-49
2022/04/29 00:16:51;;;;;;;;;;;8.10;99.90;;;;;;5059433;28;19932;-49
2022/04/29 00:19:18;;;;;;;;;;;8.10;99.90;;;;;;5071784;28;19970;-48
2022/04/29 00:21:47;;;;;;;;;;;8.10;99.90;;;;;;5070371;28;19993;-49
2022/04/29 00:24:14;;;;;;;;;;;8.10;99.90;;;;;;5072549;28;19929;-48
2022/04/29 00:26:43;;;;;;;;;;;8.10;99.90;;;;;;5066940;28;20519;-50
2022/04/29 00:29:10;;;;;;;;;;;8.10;99.90;;;;;;5069778;28;19986;-48
2022/04/29 00:31:39;;;;;;;;;;;8.10;99.90;;;;;;5072046;28;19978;-49
2022/04/29 00:34:07;;;;;;;;;;;8.10;99.90;;;;;;5072140;28;19928;-50
2022/04/29 00:36:37;;;;;;;;;;;8.10;99.90;;;;;;5074993;28;19931;-49
2022/04/29 00:39:04;;;;;;;;;;;8.00;99.90;;;;;;5075033;28;19925;-49
2022/04/29 00:41:31;;;;;;;;;;;8.00;99.90;;;;;;5074532;28;19928;-50
2022/04/29 00:44:01;;;;;;;;;;;8.00;99.90;;;;;;5094243;22;19924;-59
2022/04/29 00:46:29;;;;;;;;;;;7.90;99.90;;;;;;5052134;28;19995;-59
2022/04/29 00:48:56;;;;;;;;;;;7.90;99.90;;;;;;5052392;28;19928;-59
2022/04/29 00:51:24;;;;;;;;;;;7.90;99.90;;;;;;5040996;28;19970;-59
2022/04/29 00:53:51;;;;;;;;;;;7.90;99.90;;;;;;5036619;28;19979;-59
2022/04/29 00:56:20;;;;;;;;;;;7.90;99.90;;;;;;5061835;28;20470;-59
2022/04/29 00:58:50;;;;;;;;;;;8.00;99.90;;;;;;5060374;28;19971;-59
2022/04/29 01:01:17;;;;;;;;;;;7.90;99.90;;;;;;5054034;28;20345;-59
2022/04/29 01:03:43;;;;;;;;;;;7.90;99.90;;;;;;5052401;28;19936;-59
2022/04/29 01:06:10;;;;;;;;;;;7.80;99.90;;;;;;5046620;28;19929;-59
2022/04/29 01:08:38;;;;;;;;;;;7.80;99.90;;;;;;5045344;28;19979;-60
2022/04/29 01:11:05;;;;;;;;;;;7.80;99.90;;;;;;5052666;28;19924;-59
2022/04/29 01:13:32;;;;;;;;;;;7.80;99.90;;;;;;5052215;28;20525;-59
2022/04/29 01:15:59;;;;;;;;;;;7.80;99.90;;;;;;5046657;28;19925;-59
2022/04/29 01:18:27;;;;;;;;;;;7.80;99.90;;;;;;5054373;28;19978;-58
2022/04/29 01:21:01;;;;;;;;;;;7.70;99.90;;;;;;5053946;28;19924;-58
2022/04/29 01:23:29;;;;;;;;;;;7.60;99.90;;;;;;5051882;28;20011;-59
2022/04/29 01:25:56;;;;;;;;;;;7.50;99.90;;;;;;5044707;28;19925;-59
2022/04/29 01:28:23;;;;;;;;;;;7.50;99.90;;;;;;5054391;28;19982;-59
2022/04/29 01:30:51;;;;;;;;;;;7.50;99.90;;;;;;5052530;28;20480;-59
2022/04/29 01:33:19;;;;;;;;;;;7.50;99.90;;;;;;5052383;28;19951;-59
2022/04/29 01:35:46;;;;;;;;;;;7.50;99.90;;;;;;5044388;28;19925;-59
2022/04/29 01:38:12;;;;;;;;;;;7.40;99.90;;;;;;5053631;28;19924;-59
2022/04/29 01:40:41;;;;;;;;;;;7.30;99.90;;;;;;5052871;28;19928;-59
2022/04/29 01:43:07;;;;;;;;;;;7.30;99.90;;;;;;5054444;28;19925;-59
2022/04/29 01:45:34;;;;;;;;;;;7.40;99.90;;;;;;5049784;28;19928;-59
2022/04/29 01:48:01;;;;;;;;;;;7.40;99.90;;;;;;5053481;28;19933;-59
2022/04/29 01:50:28;;;;;;;;;;;7.30;99.90;;;;;;5054297;28;19924;-59
2022/04/29 01:52:54;;;;;;;;;;;7.30;99.90;;;;;;5054400;28;19929;-59
2022/04/29 01:55:21;;;;;;;;;;;7.30;99.90;;;;;;5051539;28;19929;-58
2022/04/29 01:57:51;;;;;;;;;;;7.20;99.90;;;;;;5041312;28;19980;-58
2022/04/29 02:00:18;;;;;;;;;;;7.20;99.90;;;;;;5050511;28;20342;-59
2022/04/29 02:02:45;;;;;;;;;;;7.20;99.90;;;;;;5051993;28;19925;-59
2022/04/29 02:05:12;;;;;;;;;;;7.10;99.90;;;;;;5052427;28;19933;-59
2022/04/29 02:07:40;;;;;;;;;;;7.00;99.90;;;;;;5053608;28;19925;-59
2022/04/29 02:10:07;;;;;;;;;;;7.00;99.90;;;;;;5053591;28;19972;-59
2022/04/29 02:12:35;;;;;;;;;;;6.90;99.90;;;;;;5051627;28;19971;-59
2022/04/29 02:15:05;;;;;;;;;;;7.00;99.90;;;;;;5051199;28;19968;-59
2022/04/29 02:17:33;;;;;;;;;;;7.00;99.90;;;;;;5049024;28;20471;-59
2022/04/29 02:20:00;;;;;;;;;;;6.90;99.90;;;;;;5042895;28;19929;-59
2022/04/29 02:22:27;;;;;;;;;;;6.90;99.90;;;;;;5046317;28;19929;-59
2022/04/29 02:24:54;;;;;;;;;;;6.90;99.90;;;;;;5053379;28;20588;-59
2022/04/29 02:27:20;;;;;;;;;;;7.10;99.90;;;;;;5052049;28;19932;-59
2022/04/29 02:29:47;;;;;;;;;;;7.00;99.90;;;;;;5049257;28;19928;-59
2022/04/29 02:32:16;;;;;;;;;;;7.00;99.90;;;;;;5052150;28;19925;-59
2022/04/29 02:34:43;;;;;;;;;;;6.90;99.90;;;;;;5044933;28;19932;-59
2022/04/29 02:37:10;;;;;;;;;;;6.80;99.90;;;;;;5053548;28;19925;-59
2022/04/29 02:39:37;;;;;;;;;;;6.70;99.90;;;;;;5053374;28;19932;-59
2022/04/29 02:42:04;;;;;;;;;;;6.70;99.90;;;;;;5053038;28;19928;-59
2022/04/29 02:44:31;;;;;;;;;;;6.60;99.90;;;;;;5051629;28;20032;-58
2022/04/29 02:47:09;;;;;;;;;;;6.70;99.90;;;;;;5044634;28;19924;-59
2022/04/29 02:49:38;;;;;;;;;;;6.70;99.90;;;;;;5042189;28;19925;-58
2022/04/29 02:52:05;;;;;;;;;;;6.70;99.90;;;;;;5051184;28;19933;-58
2022/04/29 02:54:32;;;;;;;;;;;6.70;99.90;;;;;;5053306;28;19986;-59
2022/04/29 02:56:59;;;;;;;;;;;6.70;99.90;;;;;;5051567;28;20395;-59
2022/04/29 02:59:26;;;;;;;;;;;6.70;99.90;;;;;;5052737;28;20344;-58
2022/04/29 03:01:53;;;;;;;;;;;6.60;99.90;;;;;;5046722;28;20406;-59
2022/04/29 03:04:20;;;;;;;;;;;6.60;99.90;;;;;;5052809;28;20007;-58
2022/04/29 03:06:48;;;;;;;;;;;6.60;99.90;;;;;;5051531;28;20409;-58
2022/04/29 03:09:15;;;;;;;;;;;6.60;99.90;;;;;;5041981;28;19979;-59
2022/04/29 03:11:42;;;;;;;;;;;6.70;99.90;;;;;;5053054;28;19929;-59
2022/04/29 03:14:09;;;;;;;;;;;6.80;99.90;;;;;;5033242;28;19931;-58
2022/04/29 03:16:38;;;;;;;;;;;6.90;99.90;;;;;;5045858;28;19924;-59
2022/04/29 03:19:06;;;;;;;;;;;6.80;99.90;;;;;;5043920;28;19948;-58
2022/04/29 03:21:33;;;;;;;;;;;6.90;99.90;;;;;;5051567;28;20421;-58
2022/04/29 03:24:01;;;;;;;;;;;6.90;99.90;;;;;;5051763;28;20414;-58
2022/04/29 03:26:28;;;;;;;;;;;7.00;99.90;;;;;;5054836;28;19925;-58
2022/04/29 03:28:54;;;;;;;;;;;6.90;99.90;;;;;;5057864;28;19925;-59
2022/04/29 03:31:21;;;;;;;;;;;6.90;99.90;;;;;;5056500;28;19924;-59
2022/04/29 03:33:48;;;;;;;;;;;6.70;99.90;;;;;;5053064;28;19924;-59
2022/04/29 03:36:15;;;;;;;;;;;6.60;99.90;;;;;;5043284;28;19925;-58
2022/04/29 03:38:42;;;;;;;;;;;6.40;99.90;;;;;;5052703;28;19924;-58
2022/04/29 03:41:10;;;;;;;;;;;6.30;99.90;;;;;;5050457;28;19928;-59
2022/04/29 03:43:37;;;;;;;;;;;6.20;99.90;;;;;;5052874;28;19929;-58
2022/04/29 03:46:05;;;;;;;;;;;6.20;99.90;;;;;;5036479;28;19980;-58
2022/04/29 03:49:35;;;;;;;;;;;6.20;99.90;;;;;;5050017;28;20302;-59
2022/04/29 03:51:20;;;;;;;;;;;6.10;99.90;;;;;;5057417;28;19924;-58
2022/04/29 03:53:47;;;;;;;;;;;6.00;99.90;;;;;;5057082;28;19976;-58
2022/04/29 03:56:15;;;;;;;;;;;6.00;99.90;;;;;;5057081;28;19925;-58
2022/04/29 03:58:42;;;;;;;;;;;6.10;99.90;;;;;;5056795;28;19932;-58
2022/04/29 04:01:09;;;;;;;;;;;6.00;99.90;;;;;;5054878;28;19925;-59
2022/04/29 04:03:35;;;;;;;;;;;6.10;99.90;;;;;;5056936;28;20333;-59
2022/04/29 04:08:46;;;;;;;;;;;6.80;99.90;;;;;;5054133;28;20047;-58
2022/04/29 04:11:14;;;;;;;;;;;6.80;99.90;;;;;;5047391;28;20468;-59
2022/04/29 04:13:41;;;;;;;;;;;6.70;99.90;;;;;;5048606;28;19925;-58
2022/04/29 04:16:08;;;;;;;;;;;6.50;99.90;;;;;;5057252;28;19925;-58
2022/04/29 04:18:35;;;;;;;;;;;6.40;99.90;;;;;;5054954;28;20724;-58
2022/04/29 04:21:02;;;;;;;;;;;6.30;99.90;;;;;;5055951;28;19931;-58
2022/04/29 04:23:29;;;;;;;;;;;6.20;99.90;;;;;;5054919;28;19925;-59
2022/04/29 04:25:57;;;;;;;;;;;6.30;99.90;;;;;;5056038;28;19925;-59
2022/04/29 04:28:25;;;;;;;;;;;6.30;99.90;;;;;;5055911;28;19928;-59
2022/04/29 04:30:52;;;;;;;;;;;6.20;99.90;;;;;;5053193;28;19932;-58
2022/04/29 04:33:19;;;;;;;;;;;6.30;99.90;;;;;;5056211;28;19947;-58
2022/04/29 04:35:45;;;;;;;;;;;6.30;99.90;;;;;;5052106;28;20390;-59
2022/04/29 04:38:14;;;;;;;;;;;6.40;99.90;;;;;;5053823;28;20456;-58
2022/04/29 04:40:42;;;;;;;;;;;6.60;99.90;;;;;;5055203;28;20288;-59
2022/04/29 04:43:09;;;;;;;;;;;7.40;99.90;;;;;;5053250;28;19925;-58
2022/04/29 04:45:37;;;;;;;;;;;8.70;99.90;;;;;;5047584;28;19935;-59
2022/04/29 04:48:05;;;;;;;;;;;10.20;99.90;;;;;;5046655;28;20373;-58
2022/04/29 04:50:31;;;;;;;;;;;11.40;99.90;;;;;;5051605;28;19925;-59
2022/04/29 04:52:58;;;;;;;;;;;12.40;99.90;;;;;;5052405;28;19929;-59
2022/04/29 04:55:25;;;;;;;;;;;12.50;99.90;;;;;;5047047;28;19978;-58
2022/04/29 04:57:52;;;;;;;;;;;12.10;99.90;;;;;;5044054;28;20334;-58
2022/04/29 05:00:20;;;;;;;;;;;11.30;99.90;;;;;;5047830;28;19987;-58
2022/04/29 05:02:48;;;;;;;;;;;10.40;99.90;;;;;;5052976;28;20062;-58
2022/04/29 05:05:14;;;;;;;;;;;9.80;99.90;;;;;;5045116;28;19928;-58
2022/04/29 05:07:41;;;;;;;;;;;9.90;99.90;;;;;;5051794;28;19978;-59
2022/04/29 05:10:09;;;;;;;;;;;11.20;99.90;;;;;;5051898;28;19971;-59
2022/04/29 05:12:38;;;;;;;;;;;13.40;99.90;;;;;;5052649;28;19929;-59
2022/04/29 05:15:06;;;;;;;;;;;15.70;99.90;;;;;;5047802;28;19925;-59
2022/04/29 05:17:33;;;;;;;;;;;17.60;99.90;;;;;;5052541;28;19929;-59
2022/04/29 05:20:01;;;;;;;;;;;19.20;99.90;;;;;;5052468;28;19925;-59
2022/04/29 05:22:29;;;;;;;;;;;20.80;99.90;;;;;;5048100;28;20318;-59
2022/04/29 05:24:55;;;;;;;;;;;21.90;99.90;;;;;;5051121;28;19928;-59
2022/04/29 05:27:22;;;;;;;;;;;22.80;96.80;;;;;;5052257;28;19978;-59
2022/04/29 05:29:49;;;;;;;;;;;23.70;93.30;;;;;;5051453;28;19925;-59
2022/04/29 05:32:16;;;;;;;;;;;23.40;90.80;;;;;;5052960;28;19970;-59
2022/04/29 05:34:43;;;;;;;;;;;24.20;88.50;;;;;;5051990;28;20011;-59
2022/04/29 05:37:11;;;;;;;;;;;24.90;85.20;;;;;;5039578;28;19978;-59
2022/04/29 05:42:23;;;;;;;;;;;24.00;83.80;;;;;;5050366;28;19932;-59
2022/04/29 05:44:50;;;;;;;;;;;24.60;82.80;;;;;;5048978;28;19964;-59
2022/04/29 05:47:17;;;;;;;;;;;24.30;81.10;;;;;;5051132;28;19978;-60
2022/04/29 05:49:44;;;;;;;;;;;24.70;81.10;;;;;;5047918;28;20318;-60
2022/04/29 05:52:12;;;;;;;;;;;25.70;77.70;;;;;;5049617;28;21316;-60
2022/04/29 05:54:39;;;;;;;;;;;25.60;78.00;;;;;;5051133;28;19925;-60
2022/04/29 05:57:06;;;;;;;;;;;26.80;75.70;;;;;;5051573;28;19929;-60
2022/04/29 05:59:33;;;;;;;;;;;26.70;74.00;;;;;;5052346;28;19929;-60
2022/04/29 06:02:00;;;;;;;;;;;27.10;73.50;;;;;;5055761;28;19933;-59
2022/04/29 06:04:26;;;;;;;;;;;27.70;72.30;;;;;;5053530;28;20016;-59
2022/04/29 06:06:53;;;;;;;;;;;28.20;70.20;;;;;;5052353;28;19994;-60
2022/04/29 06:09:22;;;;;;;;;;;27.30;68.00;;;;;;5051724;28;19925;-61
2022/04/29 06:11:48;;;;;;;;;;;27.60;68.70;;;;;;5051877;28;19925;-61
2022/04/29 06:14:15;;;;;;;;;;;27.50;68.50;;;;;;5050307;28;19928;-60
2022/04/29 06:16:43;;;;;;;;;;;26.90;69.00;;;;;;5050218;28;19971;-60
2022/04/29 06:19:10;;;;;;;;;;;25.80;70.90;;;;;;5052384;28;19924;-60
2022/04/29 06:21:40;;;;;;;;;;;25.20;71.50;;;;;;5064425;28;19971;-60
2022/04/29 06:24:08;;;;;;;;;;;26.40;72.00;;;;;;5061564;28;19925;-60
2022/04/29 06:26:36;;;;;;;;;;;27.20;69.20;;;;;;5063117;28;19931;-60
2022/04/29 06:29:03;;;;;;;;;;;28.00;67.90;;;;;;5049882;28;19925;-60
2022/04/29 06:31:30;;;;;;;;;;;28.30;64.60;;;;;;5046964;28;19966;-60
2022/04/29 06:33:57;;;;;;;;;;;29.40;66.10;;;;;;5041347;28;19954;-60
2022/04/29 06:36:24;;;;;;;;;;;29.90;62.00;;;;;;5046018;28;19937;-61
2022/04/29 06:38:50;;;;;;;;;;;29.90;62.60;;;;;;5051516;28;20410;-60
2022/04/29 06:41:17;;;;;;;;;;;30.70;59.60;;;;;;5050082;28;19978;-60
2022/04/29 06:43:45;;;;;;;;;;;30.60;59.50;;;;;;5050274;28;19929;-60
2022/04/29 06:46:13;;;;;;;;;;;31.20;58.30;;;;;;5049050;28;19925;-60
2022/04/29 06:48:40;;;;;;;;;;;31.60;58.40;;;;;;5042198;28;19933;-60
2022/04/29 06:51:07;;;;;;;;;;;31.80;57.40;;;;;;5040966;28;19963;-60
2022/04/29 06:53:34;;;;;;;;;;;31.50;57.10;;;;;;5043276;28;19924;-60
2022/04/29 06:56:00;;;;;;;;;;;30.80;56.90;;;;;;5063152;22;19926;-51
2022/04/29 06:58:28;;;;;;;;;;;30.90;57.20;;;;;;5018154;28;19934;-52
2022/04/29 07:00:56;;;;;;;;;;;29.20;59.70;;;;;;5033202;28;19932;-52
2022/04/29 07:03:22;;;;;;;;;;;30.70;56.70;;;;;;5035399;28;19991;-51
2022/04/29 07:05:51;;;;;;;;;;;31.20;57.80;;;;;;5023073;28;20422;-51
2022/04/29 07:08:20;;;;;;;;;;;30.00;56.30;;;;;;5019645;28;19929;-51
2022/04/29 07:10:46;;;;;;;;;;;29.90;58.70;;;;;;5041024;28;19932;-51
2022/04/29 07:13:14;;;;;;;;;;;31.30;56.30;;;;;;5029495;28;19929;-51
2022/04/29 07:15:43;;;;;;;;;;;31.00;54.50;;;;;;5023971;28;19964;-52
2022/04/29 07:18:11;;;;;;;;;;;30.80;55.70;;;;;;5012247;28;20395;-52
2022/04/29 07:20:38;;;;;;;;;;;31.50;55.50;;;;;;5029434;28;19925;-50
2022/04/29 07:23:05;;;;;;;;;;;32.50;52.50;;;;;;5030263;28;20445;-51
2022/04/29 07:25:32;;;;;;;;;;;32.20;53.20;;;;;;5027065;28;20203;-52
2022/04/29 07:27:59;;;;;;;;;;;31.80;54.30;;;;;;5028765;28;19979;-51
2022/04/29 07:30:26;;;;;;;;;;;32.60;54.90;;;;;;5021635;28;19992;-51
2022/04/29 07:32:52;;;;;;;;;;;33.10;53.10;;;;;;5011945;28;20028;-52
2022/04/29 07:43:34;;;;;;;;;;;33.80;50.80;;;;;;5020840;28;19933;-51
2022/04/29 07:46:01;;;;;;;;;;;33.80;52.00;;;;;;5019680;28;19925;-51
2022/04/29 07:48:28;;;;;;;;;;;32.90;49.40;;;;;;5027831;28;19932;-51
2022/04/29 07:50:56;;;;;;;;;;;32.50;51.80;;;;;;5020747;28;20011;-51
2022/04/29 07:53:23;;;;;;;;;;;32.20;52.00;;;;;;5022641;28;19929;-51
2022/04/29 07:55:49;;;;;;;;;;;31.50;52.00;;;;;;5026647;28;19933;-51
2022/04/29 07:58:16;;;;;;;;;;;31.70;52.80;;;;;;5017923;28;19979;-52
2022/04/29 08:00:44;;;;;;;;;;;31.60;51.70;;;;;;5013893;28;19976;-51
2022/04/29 08:03:11;;;;;;;;;;;33.40;50.10;;;;;;5021976;28;19929;-51
2022/04/29 08:05:37;;;;;;;;;;;33.70;52.20;;;;;;5029481;28;20012;-51
2022/04/29 08:08:06;;;;;;;;;;;33.40;51.10;;;;;;5029497;28;19929;-51
2022/04/29 08:10:33;;;;;;;;;;;31.60;51.40;;;;;;5029725;28;20361;-51
2022/04/29 08:13:00;;;;;;;;;;;30.20;52.30;;;;;;5020581;28;19926;-51
2022/04/29 08:15:27;;;;;;;;;;;30.00;53.70;;;;;;5010978;28;19925;-52
2022/04/29 08:17:55;;;;;;;;;;;29.60;55.30;;;;;;5010947;28;19980;-51
2022/04/29 08:20:22;;;;;;;;;;;30.80;55.30;;;;;;5018632;28;20012;-51
2022/04/29 08:22:48;;;;;;;;;;;31.70;55.20;;;;;;5029504;28;19926;-51
2022/04/29 08:25:19;;;;;;;;;;;31.80;54.90;;;;;;5025963;28;19991;-52
2022/04/29 08:27:46;;;;;;;;;;;32.90;52.50;;;;;;5024878;28;19981;-52
2022/04/29 08:30:13;;;;;;;;;;;33.40;50.90;;;;;;5030038;28;19929;-51
2022/04/29 08:32:39;;;;;;;;;;;33.90;49.60;;;;;;5032101;28;19925;-51
2022/04/29 08:35:07;;;;;;;;;;;33.90;49.80;;;;;;5030426;28;19971;-51
2022/04/29 08:37:34;;;;;;;;;;;32.70;53.10;;;;;;5030320;28;19929;-52
2022/04/29 08:40:00;;;;;;;;;;;31.80;53.10;;;;;;5028373;28;19987;-50
2022/04/29 08:42:29;;;;;;;;;;;33.50;52.00;;;;;;5034291;28;19933;-51
2022/04/29 08:44:58;;;;;;;;;;;33.60;50.80;;;;;;5027322;28;19941;-51
2022/04/29 08:47:26;;;;;;;;;;;32.70;52.10;;;;;;5023578;28;19925;-51
2022/04/29 08:49:53;;;;;;;;;;;33.00;51.00;;;;;;5027208;28;19933;-50
2022/04/29 08:52:20;;;;;;;;;;;30.10;52.80;;;;;;5024321;28;19925;-49
2022/04/29 09:00:20;;;;;;;;;;;30.70;53.40;;;;;;5024103;28;20306;-50
2022/04/29 09:02:47;;;;;;;;;;;29.70;55.40;;;;;;5025062;28;19929;-50
2022/04/29 09:05:14;;;;;;;;;;;28.50;59.50;;;;;;5022783;28;19972;-51
2022/04/29 09:07:55;;;;;;;;;;;28.50;60.00;;;;;;5026432;28;19932;-51
2022/04/29 09:10:22;;;;;;;;;;;28.20;59.50;;;;;;5021759;28;19933;-51
2022/04/29 09:12:50;;;;;;;;;;;27.20;60.60;;;;;;5023222;28;19936;-49
2022/04/29 09:15:18;;;;;;;;;;;27.90;61.80;;;;;;5021205;28;19933;-50
2022/04/29 09:17:45;;;;;;;;;;;29.30;60.10;;;;;;5022098;28;19933;-51
2022/04/29 09:20:16;;;;;;;;;;;30.90;59.80;;;;;;5023425;28;19925;-50
2022/04/29 09:22:46;;;;;;;;;;;31.50;56.90;;;;;;5021707;28;19936;-50
2022/04/29 09:25:12;;;;;;;;;;;31.00;56.10;;;;;;5021702;28;19933;-50
2022/04/29 09:27:54;;;;;;;;;;;31.40;57.00;;;;;;5023092;28;19995;-51
2022/04/29 09:30:32;;;;;;;;;;;29.20;60.20;;;;;;5021323;28;19968;-51
2022/04/29 09:32:59;;;;;;;;;;;28.80;61.90;;;;;;5021463;28;19929;-50
2022/04/29 09:35:36;;;;;;;;;;;27.30;62.80;;;;;;5023565;28;20353;-50
2022/04/29 09:40:48;;;;;;;;;;;26.70;65.50;;;;;;5027108;28;20489;-50
2022/04/29 09:43:14;;;;;;;;;;;26.00;67.50;;;;;;5026656;28;19928;-50
2022/04/29 09:45:43;;;;;;;;;;;25.00;67.80;;;;;;5026199;28;20425;-50
2022/04/29 09:48:10;;;;;;;;;;;24.60;70.10;;;;;;5021169;28;19930;-49
2022/04/29 09:50:47;;;;;;;;;;;25.00;69.40;;;;;;5028688;28;19929;-49
2022/04/29 09:53:17;;;;;;;;;;;26.10;67.80;;;;;;5028376;28;19941;-49
2022/04/29 09:56:04;;;;;;;;;;;25.80;65.00;;;;;;5032526;28;20294;-49
2022/04/29 09:58:31;;;;;;;;;;;25.00;67.80;;;;;;5026759;28;21109;-50
2022/04/29 10:01:00;;;;;;;;;;;24.60;68.50;;;;;;5029282;28;21190;-49
2022/04/29 10:03:27;;;;;;;;;;;25.00;69.70;;;;;;5031999;28;20379;-50
2022/04/29 10:05:55;;;;;;;;;;;25.10;68.20;;;;;;5031705;28;19951;-49
2022/04/29 10:08:25;;;;;;;;;;;25.90;64.00;;;;;;5032162;28;19925;-49
2022/04/29 10:10:52;;;;;;;;;;;26.30;65.90;;;;;;5032402;28;19998;-49
2022/04/29 10:13:23;;;;;;;;;;;26.00;67.20;;;;;;5032399;28;20284;-49
2022/04/29 10:15:51;;;;;;;;;;;25.20;66.20;;;;;;5033904;28;20035;-48
2022/04/29 10:21:17;;;;;;;;;;;25.50;65.60;;;;;;5032364;28;19939;-49
2022/04/29 10:23:48;;;;;;;;;;;26.40;65.10;;;;;;5029859;28;20326;-50
2022/04/29 10:26:16;;;;;;;;;;;26.80;63.20;;;;;;5024057;28;19925;-50
2022/04/29 10:28:43;;;;;;;;;;;27.30;63.80;;;;;;5024796;28;20301;-49
2022/04/29 10:31:16;;;;;;;;;;;27.70;59.80;;;;;;5030478;28;20023;-50
2022/04/29 10:33:44;;;;;;;;;;;27.10;59.90;;;;;;5030600;28;19948;-49
2022/04/29 10:36:13;;;;;;;;;;;28.70;58.00;;;;;;5023336;28;20391;-49
2022/04/29 10:38:41;;;;;;;;;;;29.70;56.50;;;;;;5019174;28;20411;-50
2022/04/29 10:41:12;;;;;;;;;;;29.50;57.70;;;;;;5024802;28;19925;-50
2022/04/29 10:43:40;;;;;;;;;;;29.00;61.00;;;;;;5028654;28;19925;-49
2022/04/29 10:46:21;;;;;;;;;;;28.00;59.60;;;;;;5024942;28;19979;-50
2022/04/29 10:48:49;;;;;;;;;;;27.30;61.60;;;;;;5020926;28;20031;-49
2022/04/29 10:51:20;;;;;;;;;;;27.00;63.10;;;;;;5021484;28;19937;-49
2022/04/29 10:53:47;;;;;;;;;;;26.40;65.20;;;;;;5019887;28;19929;-48
2022/04/29 10:56:33;;;;;;;;;;;26.60;65.10;;;;;;5021906;28;19975;-49
2022/04/29 10:59:11;;;;;;;;;;;25.10;66.10;;;;;;5020747;28;19925;-48
2022/04/29 11:01:38;;;;;;;;;;;23.70;67.60;;;;;;5020184;28;20280;-49
2022/04/29 11:04:07;;;;;;;;;;;23.40;72.90;;;;;;5020406;28;19929;-50
2022/04/29 11:06:37;;;;;;;;;;;22.90;69.80;;;;;;5021203;28;19933;-49
2022/04/29 11:09:24;;;;;;;;;;;23.50;67.90;;;;;;5020206;28;20349;-49
2022/04/29 11:11:51;;;;;;;;;;;23.60;70.10;;;;;;5025575;28;19987;-48
2022/04/29 11:14:18;;;;;;;;;;;23.40;69.10;;;;;;5026892;28;19972;-48
2022/04/29 11:16:49;;;;;;;;;;;22.90;71.00;;;;;;5020857;28;19983;-49
2022/04/29 11:19:22;;;;;;;;;;;22.50;69.90;;;;;;5027707;28;19926;-49
2022/04/29 11:24:43;;;;;;;;;;;22.20;75.20;;;;;;5020898;28;19928;-49
2022/04/29 11:27:10;;;;;;;;;;;22.50;71.60;;;;;;5021255;28;19933;-48
2022/04/29 11:29:41;;;;;;;;;;;22.50;74.40;;;;;;5031490;28;19991;-49
2022/04/29 11:32:08;;;;;;;;;;;22.80;73.30;;;;;;5030276;28;20272;-48
2022/04/29 11:34:50;;;;;;;;;;;23.30;73.60;;;;;;5019334;28;20001;-48
2022/04/29 11:37:22;;;;;;;;;;;23.30;74.10;;;;;;5026825;28;20023;-48
2022/04/29 11:39:49;;;;;;;;;;;23.50;73.30;;;;;;5034853;28;19931;-49
2022/04/29 11:42:17;;;;;;;;;;;23.10;68.50;;;;;;5031260;28;19925;-49
2022/04/29 11:44:45;;;;;;;;;;;23.20;67.30;;;;;;5027809;28;19979;-48
2022/04/29 11:47:13;;;;;;;;;;;23.60;69.40;;;;;;5029682;28;19937;-49
2022/04/29 11:49:41;;;;;;;;;;;23.80;68.70;;;;;;5029225;28;20550;-50
2022/04/29 11:52:17;;;;;;;;;;;23.70;65.40;;;;;;5027432;28;19925;-49
2022/04/29 11:54:49;;;;;;;;;;;23.60;64.60;;;;;;5026754;28;19979;-49
2022/04/29 11:57:16;;;;;;;;;;;23.40;66.40;;;;;;5030208;28;19979;-50
2022/04/29 11:59:43;;;;;;;;;;;23.50;66.90;;;;;;5031522;28;19979;-49
2022/04/29 12:02:10;;;;;;;;;;;23.40;65.00;;;;;;5031511;28;19925;-49
2022/04/29 12:04:37;;;;;;;;;;;22.80;65.40;;;;;;5015939;28;19925;-49
2022/04/29 12:07:05;;;;;;;;;;;23.00;66.00;;;;;;5027466;28;19933;-49
2022/04/29 12:09:32;;;;;;;;;;;22.90;67.20;;;;;;5025645;28;19929;-49
2022/04/29 12:12:00;;;;;;;;;;;22.90;67.90;;;;;;5034206;28;20395;-49
2022/04/29 12:14:26;;;;;;;;;;;22.70;68.50;;;;;;5015697;28;19925;-49
2022/04/29 12:16:53;;;;;;;;;;;22.30;69.10;;;;;;5024050;28;19929;-49
2022/04/29 12:19:21;;;;;;;;;;;21.90;69.70;;;;;;5039448;28;19929;-49
2022/04/29 12:21:55;;;;;;;;;;;21.50;69.00;;;;;;5026363;28;19979;-49
2022/04/29 12:24:23;;;;;;;;;;;21.40;66.50;;;;;;5015872;28;19925;-49
2022/04/29 12:27:04;;;;;;;;;;;21.20;66.20;;;;;;5033019;28;19925;-49
2022/04/29 12:29:31;;;;;;;;;;;21.50;64.00;;;;;;5034116;28;19925;-49
2022/04/29 12:35:05;;;;;;;;;;;21.70;68.10;;;;;;5026623;28;19928;-49
2022/04/29 12:37:32;;;;;;;;;;;21.60;69.20;;;;;;5032321;28;19925;-49
2022/04/29 12:40:05;;;;;;;;;;;21.70;71.60;;;;;;5031196;28;20288;-49
2022/04/29 12:42:32;;;;;;;;;;;22.00;69.20;;;;;;5029030;28;19979;-49
2022/04/29 12:45:11;;;;;;;;;;;22.00;70.20;;;;;;5030655;28;19925;-49
2022/04/29 12:47:39;;;;;;;;;;;22.20;67.00;;;;;;5029603;28;20391;-49
2022/04/29 12:50:23;;;;;;;;;;;22.30;65.20;;;;;;5028891;28;19925;-49
2022/04/29 12:52:50;;;;;;;;;;;22.30;67.90;;;;;;5031061;28;19931;-48
2022/04/29 12:58:09;;;;;;;;;;;22.10;67.70;;;;;;5083556;28;19928;-60
2022/04/29 13:00:37;;;;;;;;;;;22.10;72.30;;;;;;5087508;28;19932;-60
2022/04/29 13:03:04;;;;;;;;;;;21.90;71.70;;;;;;5079316;28;19932;-60
2022/04/29 13:05:32;;;;;;;;;;;22.00;70.10;;;;;;5081740;28;20303;-60
2022/04/29 13:07:59;;;;;;;;;;;21.70;69.20;;;;;;5083764;28;19978;-60
2022/04/29 13:10:26;;;;;;;;;;;22.20;70.10;;;;;;5079873;28;19950;-60
2022/04/29 13:12:54;;;;;;;;;;;22.30;66.70;;;;;;5083390;28;19940;-60
2022/04/29 13:15:22;;;;;;;;;;;22.20;68.30;;;;;;5086564;28;20278;-60
2022/04/29 13:17:49;;;;;;;;;;;22.40;66.40;;;;;;5082095;28;19940;-61
2022/04/29 13:20:16;;;;;;;;;;;22.40;69.30;;;;;;5083063;28;19986;-61
2022/04/29 13:22:43;;;;;;;;;;;22.40;68.30;;;;;;5081622;28;20293;-61
2022/04/29 13:25:09;;;;;;;;;;;22.40;67.00;;;;;;5083919;28;20239;-60
2022/04/29 13:27:37;;;;;;;;;;;22.40;64.30;;;;;;5083764;28;19924;-61
2022/04/29 13:30:05;;;;;;;;;;;22.40;64.70;;;;;;5081159;28;20711;-60
2022/04/29 13:32:33;;;;;;;;;;;22.30;62.50;;;;;;5089370;28;20274;-60
2022/04/29 13:35:00;;;;;;;;;;;22.00;60.80;;;;;;5086778;28;19993;-60
2022/04/29 13:37:26;;;;;;;;;;;22.20;66.10;;;;;;5083685;28;20386;-60
2022/04/29 13:39:53;;;;;;;;;;;22.30;67.00;;;;;;5084746;28;19932;-61
2022/04/29 13:42:20;;;;;;;;;;;22.30;63.40;;;;;;5088223;28;19924;-61
2022/04/29 13:44:47;;;;;;;;;;;22.30;67.20;;;;;;5085924;28;20551;-60
2022/04/29 13:47:14;;;;;;;;;;;22.40;64.20;;;;;;5083304;28;19985;-60
2022/04/29 13:49:42;;;;;;;;;;;22.20;66.30;;;;;;5083451;28;20035;-61
2022/04/29 13:54:54;;;;;;;;;;;22.10;67.50;;;;;;5087706;28;19927;-61
2022/04/29 13:57:22;;;;;;;;;;;22.10;66.20;;;;;;5089785;28;20010;-61
2022/04/29 13:59:49;;;;;;;;;;;22.10;63.20;;;;;;5092146;28;19925;-61
2022/04/29 14:02:16;;;;;;;;;;;22.10;61.10;;;;;;5091697;28;19993;-61
2022/04/29 14:04:45;;;;;;;;;;;22.10;65.30;;;;;;5092089;28;20386;-61
2022/04/29 14:07:13;;;;;;;;;;;22.20;64.10;;;;;;5092296;28;19931;-60
2022/04/29 14:09:40;;;;;;;;;;;22.10;63.00;;;;;;5087748;28;19924;-60
2022/04/29 14:12:08;;;;;;;;;;;21.70;62.30;;;;;;5085801;28;19925;-60
2022/04/29 14:14:34;;;;;;;;;;;21.50;64.20;;;;;;5086731;28;20014;-60
2022/04/29 14:17:01;;;;;;;;;;;21.10;64.50;;;;;;5091249;28;19977;-60
2022/04/29 14:19:28;;;;;;;;;;;21.00;66.70;;;;;;5087367;28;20026;-60
2022/04/29 14:21:56;;;;;;;;;;;21.30;65.80;;;;;;5091617;28;19985;-61
2022/04/29 14:24:23;;;;;;;;;;;21.40;65.70;;;;;;5091272;28;19970;-60
2022/04/29 14:26:49;;;;;;;;;;;21.40;64.60;;;;;;5074984;28;19932;-61
2022/04/29 14:29:16;;;;;;;;;;;21.10;66.50;;;;;;5072007;28;20313;-61
2022/04/29 14:31:43;;;;;;;;;;;21.10;67.80;;;;;;5084297;28;19924;-61
2022/04/29 14:34:10;;;;;;;;;;;21.00;65.80;;;;;;5090910;28;19935;-61
2022/04/29 14:36:40;;;;;;;;;;;21.10;67.90;;;;;;5087239;28;19931;-61
2022/04/29 14:39:12;;;;;;;;;;;21.00;65.80;;;;;;5081394;28;20034;-61
2022/04/29 14:41:38;;;;;;;;;;;21.00;66.20;;;;;;5076887;28;19924;-60
2022/04/29 14:44:05;;;;;;;;;;;21.00;66.30;;;;;;5089921;28;19932;-61
2022/04/29 14:46:36;;;;;;;;;;;20.90;65.40;;;;;;5091311;28;19924;-60
2022/04/29 14:49:03;;;;;;;;;;;20.90;64.80;;;;;;5086930;28;19931;-61
2022/04/29 14:51:30;;;;;;;;;;;20.80;66.20;;;;;;5090866;28;19977;-61
2022/04/29 14:53:57;;;;;;;;;;;20.70;66.00;;;;;;5089320;28;19928;-61
2022/04/29 14:56:25;;;;;;;;;;;20.50;67.30;;;;;;5084850;28;20416;-61
2022/04/29 14:58:52;;;;;;;;;;;20.50;67.90;;;;;;5082089;28;19977;-61
2022/04/29 15:01:19;;;;;;;;;;;20.50;68.50;;;;;;5091202;28;19925;-61
2022/04/29 15:03:46;;;;;;;;;;;20.20;67.50;;;;;;5074569;28;19924;-61